Time;durP1;ratioP1;P1;durP2;ratioP2;P2;SDS_P1;SDS_P2;PMS_P1;PMS_P2;Temp;Humidity;BMP_temperature;BMP_pressure;BME280_temperature;BME280_humidity;BME280_pressure;Samples;Min_cycle;Max_cycle;Signal;HPM_P1;HPM_P2
2023/12/05 00:01:09;;;;;;;5.70;3.03;;;7.40;99.90;;;;;;5031817;28;20020;-17
2023/12/05 00:03:35;;;;;;;5.60;3.33;;;7.50;99.90;;;;;;4992342;28;20042;-19
2023/12/05 00:06:01;;;;;;;6.00;3.47;;;9.80;99.90;;;;;;5019087;28;20636;-17
2023/12/05 00:08:27;;;;;;;4.90;3.03;;;7.50;99.90;;;;;;5025878;28;20037;-20
2023/12/05 00:10:53;;;;;;;5.68;3.35;;;7.50;99.90;;;;;;5011852;28;20036;-20
2023/12/05 00:13:18;;;;;;;6.23;3.23;;;7.50;99.90;;;;;;5025556;28;20056;-21
2023/12/05 00:15:44;;;;;;;6.20;3.60;;;7.50;99.90;;;;;;5025614;28;20254;-20
2023/12/05 00:18:10;;;;;;;6.83;3.20;;;7.60;99.90;;;;;;5030137;28;20485;-20
2023/12/05 00:20:36;;;;;;;6.40;3.42;;;7.50;99.90;;;;;;4982573;28;20534;-20
2023/12/05 00:23:01;;;;;;;6.50;3.47;;;7.50;99.90;;;;;;5030599;28;20025;-20
2023/12/05 00:25:27;;;;;;;6.28;3.30;;;7.50;99.90;;;;;;5019903;28;20108;-20
2023/12/05 00:27:53;;;;;;;5.67;3.30;;;7.50;99.90;;;;;;4996510;28;20041;-20
2023/12/05 00:30:19;;;;;;;5.68;3.33;;;7.50;99.90;;;;;;5025734;28;20053;-21
2023/12/05 00:32:44;;;;;;;7.00;3.77;;;7.60;99.90;;;;;;5003638;28;20441;-20
2023/12/05 00:35:10;;;;;;;6.63;3.88;;;7.60;99.90;;;;;;4996378;28;20037;-21
2023/12/05 00:37:36;;;;;;;7.15;3.90;;;7.60;99.90;;;;;;5009987;28;20032;-20
2023/12/05 00:40:03;;;;;;;7.13;3.60;;;7.60;99.90;;;;;;5019151;28;20671;-20
2023/12/05 00:42:29;;;;;;;6.63;3.83;;;7.60;99.90;;;;;;5021267;28;20029;-20
2023/12/05 00:44:55;;;;;;;6.87;3.70;;;7.60;99.90;;;;;;5009148;28;20658;-20
2023/12/05 00:47:20;;;;;;;7.80;4.32;;;7.60;99.90;;;;;;5027942;28;20061;-20
2023/12/05 00:49:46;;;;;;;8.17;4.00;;;7.60;99.90;;;;;;4981520;28;20033;-20
2023/12/05 00:52:12;;;;;;;6.47;3.78;;;7.60;99.90;;;;;;5011815;28;20466;-21
2023/12/05 00:54:37;;;;;;;7.43;3.87;;;7.60;99.90;;;;;;5013917;28;20116;-20
2023/12/05 00:57:03;;;;;;;6.83;3.73;;;7.60;99.90;;;;;;5017219;28;20029;-20
2023/12/05 00:59:29;;;;;;;5.97;3.38;;;7.60;99.90;;;;;;4976022;28;20818;-20
2023/12/05 01:01:55;;;;;;;6.43;3.72;;;7.60;99.90;;;;;;5027470;28;20166;-20
2023/12/05 01:04:20;;;;;;;6.63;3.47;;;7.60;99.90;;;;;;5026055;28;20633;-21
2023/12/05 01:06:46;;;;;;;6.57;3.78;;;7.60;99.90;;;;;;4971775;28;20344;-20
2023/12/05 01:09:12;;;;;;;5.63;2.97;;;7.60;99.90;;;;;;5027513;28;20107;-20
2023/12/05 01:11:37;;;;;;;7.38;4.03;;;7.70;99.90;;;;;;5015343;28;20068;-20
2023/12/05 01:14:03;;;;;;;7.13;3.90;;;7.60;99.90;;;;;;5019903;28;20060;-20
2023/12/05 01:16:29;;;;;;;6.60;3.45;;;7.70;99.90;;;;;;5026653;28;20087;-20
2023/12/05 01:18:54;;;;;;;6.63;4.00;;;7.00;99.90;;;;;;5025414;28;20186;-17
2023/12/05 01:21:20;;;;;;;8.43;4.25;;;7.70;99.90;;;;;;5003233;28;20490;-17
2023/12/05 01:23:46;;;;;;;6.93;3.70;;;7.70;99.90;;;;;;4993713;28;20036;-18
2023/12/05 01:26:11;;;;;;;7.05;3.97;;;7.70;99.90;;;;;;5018885;28;20029;-16
2023/12/05 01:28:37;;;;;;;6.77;4.03;;;7.80;99.90;;;;;;5016496;28;20096;-18
2023/12/05 01:31:03;;;;;;;6.80;3.80;;;7.80;99.90;;;;;;4992800;28;20860;-16
2023/12/05 01:33:29;;;;;;;7.37;3.90;;;7.70;99.90;;;;;;5013735;28;20041;-19
2023/12/05 01:35:54;;;;;;;6.70;3.58;;;7.70;99.90;;;;;;5007558;28;20413;-16
2023/12/05 01:38:20;;;;;;;7.17;3.97;;;7.80;99.90;;;;;;5002319;28;20033;-17
2023/12/05 01:40:46;;;;;;;7.40;4.18;;;7.80;99.90;;;;;;5014687;28;20285;-17
2023/12/05 01:43:12;;;;;;;7.63;3.97;;;7.80;99.90;;;;;;4996707;28;20048;-17
2023/12/05 01:45:37;;;;;;;6.50;3.50;;;7.80;99.90;;;;;;5014838;28;20029;-18
2023/12/05 01:48:05;;;;;;;6.80;3.93;;;7.70;99.90;;;;;;5024529;28;20291;-18
2023/12/05 01:50:32;;;;;;;7.47;4.15;;;7.80;99.90;;;;;;5024332;28;20495;-19
2023/12/05 01:53:03;;;;;;;7.38;3.83;;;7.80;99.90;;;;;;4983809;28;20326;-18
2023/12/05 01:55:29;;;;;;;7.50;3.97;;;7.80;99.90;;;;;;5006825;28;20036;-19
2023/12/05 01:57:56;;;;;;;10.17;4.10;;;7.80;99.90;;;;;;5017512;28;20242;-17
2023/12/05 02:00:23;;;;;;;8.45;4.35;;;7.80;99.90;;;;;;5011932;28;20032;-17
2023/12/05 02:02:49;;;;;;;9.32;4.90;;;7.80;99.90;;;;;;5013765;28;20654;-17
2023/12/05 02:05:15;;;;;;;8.57;4.47;;;7.80;99.90;;;;;;5026026;28;20030;-18
2023/12/05 02:07:41;;;;;;;9.27;4.60;;;7.80;99.90;;;;;;5022915;28;20039;-19
2023/12/05 02:10:08;;;;;;;9.47;4.57;;;7.80;99.90;;;;;;4965385;28;20409;-18
2023/12/05 02:12:38;;;;;;;7.90;4.43;;;7.80;99.90;;;;;;5018934;28;20108;-17
2023/12/05 02:15:05;;;;;;;8.57;4.43;;;7.80;99.90;;;;;;5001339;28;20036;-17
2023/12/05 02:17:43;;;;;;;8.43;4.50;;;7.80;99.90;;;;;;5004439;28;20596;-19
2023/12/05 02:20:28;;;;;;;8.43;4.13;;;7.80;99.90;;;;;;5021177;28;20815;-17
2023/12/05 02:23:16;;;;;;;8.00;3.90;;;7.90;99.90;;;;;;5021850;28;20029;-19
2023/12/05 02:26:01;;;;;;;8.10;4.25;;;7.90;99.90;;;;;;4970627;28;20041;-17
2023/12/05 02:28:27;;;;;;;8.82;4.00;;;7.80;99.90;;;;;;5026496;28;20106;-17
2023/12/05 02:30:53;;;;;;;7.50;4.03;;;7.80;99.90;;;;;;5014572;28;20533;-20
2023/12/05 02:33:19;;;;;;;8.77;4.67;;;7.90;99.90;;;;;;5018927;28;20197;-21
2023/12/05 02:35:46;;;;;;;9.23;4.55;;;7.90;99.90;;;;;;5027387;28;20025;-20
2023/12/05 02:38:18;;;;;;;9.02;4.93;;;7.90;99.90;;;;;;5026050;28;20575;-20
2023/12/05 02:41:15;;;;;;;8.13;4.23;;;7.90;99.90;;;;;;5002576;28;20075;-21
2023/12/05 02:43:51;;;;;;;8.52;4.28;;;7.90;99.90;;;;;;5016285;28;20028;-21
2023/12/05 02:46:18;;;;;;;8.05;4.35;;;7.90;99.90;;;;;;5000942;28;20407;-21
2023/12/05 02:48:45;;;;;;;10.55;5.32;;;7.90;99.90;;;;;;5018650;28;20015;-20
2023/12/05 02:51:11;;;;;;;10.55;5.15;;;7.90;99.90;;;;;;5022285;28;20598;-21
2023/12/05 02:53:37;;;;;;;9.73;4.47;;;7.90;99.90;;;;;;5027256;28;20394;-20
2023/12/05 02:56:04;;;;;;;9.07;4.65;;;7.90;99.90;;;;;;4996903;28;20044;-21
2023/12/05 02:58:30;;;;;;;8.23;4.13;;;7.80;99.90;;;;;;5012611;28;20413;-20
2023/12/05 03:00:55;;;;;;;8.90;4.55;;;7.80;99.90;;;;;;5023072;28;20025;-20
2023/12/05 03:03:21;;;;;;;8.73;4.60;;;7.90;99.90;;;;;;5012192;28;20037;-20
2023/12/05 03:05:47;;;;;;;9.80;4.82;;;7.80;99.90;;;;;;4996980;28;20063;-20
2023/12/05 03:08:13;;;;;;;10.10;4.67;;;7.90;99.90;;;;;;5022296;28;20294;-20
2023/12/05 03:10:38;;;;;;;9.45;4.88;;;7.90;99.90;;;;;;5000649;28;20506;-16
2023/12/05 03:13:04;;;;;;;9.67;4.67;;;7.80;99.90;;;;;;5011925;28;20141;-17
2023/12/05 03:15:30;;;;;;;9.50;4.47;;;7.90;99.90;;;;;;5026939;28;20030;-17
2023/12/05 03:17:55;;;;;;;8.73;4.50;;;7.80;99.90;;;;;;5014773;28;20295;-19
2023/12/05 03:20:21;;;;;;;8.50;4.00;;;7.90;99.90;;;;;;5018457;28;20140;-17
2023/12/05 03:22:47;;;;;;;8.52;4.57;;;7.80;99.90;;;;;;5006971;28;20029;-19
2023/12/05 03:25:13;;;;;;;8.75;4.50;;;7.90;99.90;;;;;;5010797;28;20252;-17
2023/12/05 03:27:38;;;;;;;10.10;4.87;;;7.90;99.90;;;;;;4967098;28;20457;-17
2023/12/05 03:30:04;;;;;;;10.43;5.40;;;7.90;99.90;;;;;;5006737;28;20028;-18
2023/12/05 03:32:30;;;;;;;8.90;4.40;;;7.80;99.90;;;;;;5024474;28;20021;-17
2023/12/05 03:34:56;;;;;;;9.60;4.20;;;7.90;99.90;;;;;;4998518;28;20508;-19
2023/12/05 03:37:22;;;;;;;9.07;4.60;;;7.90;99.90;;;;;;5026477;28;20368;-17
2023/12/05 03:39:47;;;;;;;8.30;4.40;;;7.90;99.90;;;;;;5008443;28;20108;-20
2023/12/05 03:42:13;;;;;;;7.53;4.00;;;7.90;99.90;;;;;;4962252;28;20325;-20
2023/12/05 03:44:39;;;;;;;9.67;4.67;;;7.90;99.90;;;;;;5016759;28;20025;-20
2023/12/05 03:47:04;;;;;;;9.33;4.70;;;7.90;99.90;;;;;;5001656;28;20279;-20
2023/12/05 03:49:30;;;;;;;8.35;4.30;;;7.90;99.90;;;;;;5004868;28;20037;-20
2023/12/05 03:51:56;;;;;;;9.38;4.85;;;7.90;99.90;;;;;;5001882;28;20053;-20
2023/12/05 03:54:22;;;;;;;9.40;4.40;;;7.90;99.90;;;;;;5026814;28;20033;-21
2023/12/05 03:56:47;;;;;;;8.67;4.33;;;7.90;99.90;;;;;;5008586;28;20033;-20
2023/12/05 03:59:13;;;;;;;10.07;4.50;;;7.90;99.90;;;;;;4986532;28;20391;-21
2023/12/05 04:01:39;;;;;;;8.83;4.77;;;7.90;99.90;;;;;;5019212;28;20056;-21
2023/12/05 04:04:04;;;;;;;10.32;4.90;;;7.90;99.90;;;;;;5004226;28;20075;-21
2023/12/05 04:06:30;;;;;;;10.05;5.00;;;7.90;99.90;;;;;;5010623;28;20112;-21
2023/12/05 04:08:56;;;;;;;9.93;5.10;;;7.80;99.90;;;;;;5011275;28;20523;-21
2023/12/05 04:11:32;;;;;;;10.20;5.25;;;7.80;99.90;;;;;;5023839;28;20087;-21
2023/12/05 04:13:59;;;;;;;8.88;4.68;;;7.80;99.90;;;;;;5000966;28;20626;-20
2023/12/05 04:16:26;;;;;;;10.63;4.93;;;7.80;99.90;;;;;;5016521;28;20354;-20
2023/12/05 04:18:52;;;;;;;10.97;5.40;;;7.80;99.90;;;;;;5017694;28;20029;-20
2023/12/05 04:21:18;;;;;;;9.57;4.72;;;7.80;99.90;;;;;;5012701;28;20609;-20
2023/12/05 04:23:47;;;;;;;11.35;5.80;;;7.80;99.90;;;;;;4999494;28;20112;-20
2023/12/05 04:26:20;;;;;;;11.88;6.43;;;7.70;99.90;;;;;;5027502;28;20264;-20
2023/12/05 04:28:46;;;;;;;11.82;5.60;;;7.80;99.90;;;;;;5021320;28;20033;-20
2023/12/05 04:31:13;;;;;;;10.43;5.50;;;7.70;99.90;;;;;;4999417;28;21128;-20
2023/12/05 04:33:42;;;;;;;11.65;5.72;;;7.70;99.90;;;;;;5002914;28;20032;-21
2023/12/05 04:36:08;;;;;;;10.65;5.18;;;7.60;99.90;;;;;;5020640;28;20232;-21
2023/12/05 04:38:36;;;;;;;11.15;5.13;;;7.60;99.90;;;;;;5016654;28;20021;-20
2023/12/05 04:41:02;;;;;;;12.18;5.50;;;7.70;99.90;;;;;;5026044;28;20218;-20
2023/12/05 04:43:28;;;;;;;10.67;5.30;;;7.60;99.90;;;;;;5030753;28;20032;-20
2023/12/05 04:45:53;;;;;;;9.68;5.35;;;7.60;99.90;;;;;;5001586;28;20028;-20
2023/12/05 04:48:19;;;;;;;11.63;5.75;;;7.60;99.90;;;;;;5010064;28;20149;-20
2023/12/05 04:50:45;;;;;;;12.07;5.87;;;7.60;99.90;;;;;;5007228;28;20095;-19
2023/12/05 04:53:10;;;;;;;11.18;5.40;;;7.60;99.90;;;;;;5015635;28;20347;-17
2023/12/05 04:55:36;;;;;;;11.93;5.70;;;7.60;99.90;;;;;;5001285;28;20041;-17
2023/12/05 04:58:02;;;;;;;10.75;5.13;;;7.60;99.90;;;;;;5026029;28;20034;-17
2023/12/05 05:00:27;;;;;;;12.17;5.70;;;7.60;99.90;;;;;;5028912;28;20029;-18
2023/12/05 05:02:53;;;;;;;14.77;6.53;;;7.60;99.90;;;;;;4971581;28;20021;-19
2023/12/05 05:05:19;;;;;;;13.67;6.37;;;7.60;99.90;;;;;;5026439;28;20116;-18
2023/12/05 05:07:45;;;;;;;14.65;5.90;;;7.60;99.90;;;;;;5000566;28;20108;-19
2023/12/05 05:10:10;;;;;;;11.63;5.53;;;7.60;99.90;;;;;;5001914;28;20308;-18
2023/12/05 05:12:36;;;;;;;10.02;5.30;;;7.60;99.90;;;;;;5028300;28;20539;-17
2023/12/05 05:15:02;;;;;;;9.33;4.87;;;7.60;99.90;;;;;;5024587;28;20029;-17
2023/12/05 05:17:28;;;;;;;10.73;5.00;;;7.50;99.90;;;;;;4990525;28;20029;-18
2023/12/05 05:19:54;;;;;;;10.23;5.03;;;7.60;99.90;;;;;;5014584;28;20116;-18
2023/12/05 05:22:19;;;;;;;9.80;4.75;;;7.50;99.90;;;;;;5026148;28;20064;-17
2023/12/05 05:24:45;;;;;;;11.07;5.22;;;7.60;99.90;;;;;;5016924;28;20571;-18
2023/12/05 05:27:11;;;;;;;10.27;5.10;;;7.60;99.90;;;;;;5026552;28;20029;-17
2023/12/05 05:29:37;;;;;;;9.63;4.75;;;7.50;99.90;;;;;;5011271;28;20037;-16
2023/12/05 05:32:04;;;;;;;10.53;4.90;;;7.50;99.90;;;;;;4995430;28;20239;-17
2023/12/05 05:34:29;;;;;;;9.30;4.72;;;7.40;99.90;;;;;;5018759;28;20041;-18
2023/12/05 05:36:55;;;;;;;9.85;4.68;;;7.40;99.90;;;;;;5025736;28;20024;-18
2023/12/05 05:39:21;;;;;;;9.83;4.67;;;7.40;99.90;;;;;;5015958;28;20033;-17
2023/12/05 05:41:46;;;;;;;9.00;4.50;;;7.40;99.90;;;;;;5026340;28;20036;-17
2023/12/05 05:44:12;;;;;;;8.10;4.17;;;7.40;99.90;;;;;;5027139;28;20132;-17
2023/12/05 05:46:38;;;;;;;8.13;4.25;;;7.40;99.90;;;;;;5028094;28;20079;-16
2023/12/05 05:49:04;;;;;;;9.40;4.70;;;7.30;99.90;;;;;;4954715;28;20184;-17
2023/12/05 05:51:29;;;;;;;9.40;4.70;;;7.30;99.90;;;;;;5011886;28;20034;-20
2023/12/05 05:53:55;;;;;;;7.50;3.97;;;7.30;99.90;;;;;;4989916;28;20152;-20
2023/12/05 05:56:22;;;;;;;8.18;3.80;;;7.30;99.90;;;;;;5026006;28;20021;-20
2023/12/05 05:58:49;;;;;;;7.43;3.83;;;7.40;99.90;;;;;;5027626;28;20029;-20
2023/12/05 06:01:15;;;;;;;8.27;3.75;;;6.60;99.90;;;;;;4979070;28;20037;-20
2023/12/05 06:03:41;;;;;;;8.63;3.83;;;7.30;99.90;;;;;;5002302;28;20505;-20
2023/12/05 06:06:07;;;;;;;8.38;3.95;;;7.30;99.90;;;;;;4975654;28;20021;-20
2023/12/05 06:08:33;;;;;;;8.57;4.03;;;7.40;99.90;;;;;;5023365;28;20507;-20
2023/12/05 06:10:59;;;;;;;8.38;4.38;;;7.30;99.90;;;;;;4998293;28;20223;-20
2023/12/05 06:13:24;;;;;;;8.47;4.20;;;7.30;99.90;;;;;;5009575;28;20059;-20
2023/12/05 06:15:51;;;;;;;7.65;3.75;;;7.30;99.90;;;;;;5011714;28;20696;-20
2023/12/05 06:18:17;;;;;;;8.93;4.40;;;7.30;99.90;;;;;;5026447;28;20352;-20
2023/12/05 06:20:43;;;;;;;8.30;4.07;;;7.30;99.90;;;;;;4989490;28;20017;-20
2023/12/05 06:23:09;;;;;;;9.90;4.63;;;7.30;99.90;;;;;;5025878;28;20513;-20
2023/12/05 06:25:35;;;;;;;8.18;4.07;;;7.30;99.90;;;;;;5013327;28;20029;-20
2023/12/05 06:28:01;;;;;;;9.23;4.60;;;7.30;99.90;;;;;;5026321;28;20142;-20
2023/12/05 06:30:27;;;;;;;9.67;4.23;;;7.30;99.90;;;;;;4997408;28;20504;-20
2023/12/05 06:32:53;;;;;;;8.88;4.28;;;7.20;99.90;;;;;;5001840;28;20342;-20
2023/12/05 06:35:19;;;;;;;8.63;4.63;;;7.30;99.90;;;;;;5002997;28;20036;-20
2023/12/05 06:37:44;;;;;;;9.30;4.60;;;7.30;99.90;;;;;;4979284;28;20255;-20
2023/12/05 06:40:10;;;;;;;9.18;4.20;;;7.30;99.90;;;;;;5026084;28;20025;-20
2023/12/05 06:42:37;;;;;;;7.95;3.83;;;7.30;99.90;;;;;;5013873;28;20435;-20
2023/12/05 06:45:03;;;;;;;8.43;4.30;;;7.30;99.90;;;;;;5008654;28;20489;-20
2023/12/05 06:47:30;;;;;;;8.73;4.25;;;7.30;99.90;;;;;;4984302;28;20037;-20
2023/12/05 06:50:00;;;;;;;10.07;4.88;;;7.30;99.90;;;;;;4969858;28;20741;-20
2023/12/05 06:52:28;;;;;;;10.32;4.88;;;7.30;99.90;;;;;;5014102;28;20056;-20
2023/12/05 06:54:54;;;;;;;11.48;4.95;;;7.30;99.90;;;;;;5012480;28;20055;-20
2023/12/05 06:57:19;;;;;;;10.03;5.03;;;7.30;99.90;;;;;;5030985;28;20918;-20
2023/12/05 06:59:45;;;;;;;9.83;4.70;;;7.30;99.90;;;;;;5027952;28;20021;-20
2023/12/05 07:02:11;;;;;;;11.32;5.15;;;7.40;99.90;;;;;;5018017;28;20100;-16
2023/12/05 07:04:36;;;;;;;10.80;5.00;;;7.40;99.90;;;;;;5000218;28;20674;-17
2023/12/05 07:07:02;;;;;;;11.05;4.82;;;7.40;99.90;;;;;;5017070;28;20040;-17
2023/12/05 07:09:28;;;;;;;10.97;5.03;;;7.30;99.90;;;;;;5027902;28;20028;-18
2023/12/05 07:11:54;;;;;;;12.07;5.72;;;7.40;99.90;;;;;;5005760;28;20102;-17
2023/12/05 07:14:19;;;;;;;13.30;5.87;;;7.40;99.90;;;;;;5026632;28;20573;-18
2023/12/05 07:16:46;;;;;;;13.23;5.32;;;7.40;99.90;;;;;;5014526;28;20465;-17
2023/12/05 07:19:12;;;;;;;11.85;5.82;;;7.40;99.90;;;;;;4986724;28;20417;-17
2023/12/05 07:21:38;;;;;;;11.90;5.57;;;7.40;99.90;;;;;;5027113;28;20036;-18
2023/12/05 07:24:03;;;;;;;12.13;5.50;;;7.40;99.90;;;;;;5004093;28;20120;-17
2023/12/05 07:26:29;;;;;;;13.40;6.15;;;7.30;99.90;;;;;;4993713;28;20051;-18
2023/12/05 07:28:55;;;;;;;12.97;5.80;;;7.30;99.90;;;;;;5024281;28;20033;-17
2023/12/05 07:31:21;;;;;;;15.07;6.30;;;7.30;99.90;;;;;;5027876;28;20031;-16
2023/12/05 07:33:47;;;;;;;13.10;5.13;;;7.30;99.90;;;;;;4973271;28;20037;-16
2023/12/05 07:36:13;;;;;;;13.75;6.10;;;7.30;99.90;;;;;;5025189;28;20480;-16
2023/12/05 07:38:39;;;;;;;17.20;6.88;;;7.30;99.90;;;;;;5015804;28;20470;-18
2023/12/05 07:41:05;;;;;;;14.27;6.17;;;7.30;99.90;;;;;;5028210;28;20029;-17
2023/12/05 07:43:31;;;;;;;16.20;6.28;;;7.30;99.90;;;;;;5022159;28;20040;-18
2023/12/05 07:45:56;;;;;;;14.25;6.32;;;7.30;99.90;;;;;;5012973;28;20037;-16
2023/12/05 07:48:22;;;;;;;14.90;6.07;;;7.30;99.90;;;;;;4987310;28;20041;-17
2023/12/05 07:50:48;;;;;;;16.40;6.63;;;7.30;99.90;;;;;;5006071;28;20021;-17
2023/12/05 07:53:14;;;;;;;16.53;6.83;;;7.30;99.90;;;;;;5011465;28;20521;-17
2023/12/05 07:55:40;;;;;;;15.60;6.22;;;7.40;99.90;;;;;;5018733;28;20033;-18
2023/12/05 07:58:06;;;;;;;16.13;6.88;;;7.30;99.90;;;;;;5030729;28;20032;-17
2023/12/05 08:00:34;;;;;;;17.43;6.90;;;7.40;99.90;;;;;;5025807;28;20078;-18
2023/12/05 08:03:00;;;;;;;14.40;6.10;;;7.40;99.90;;;;;;5002510;28;20323;-16
2023/12/05 08:05:25;;;;;;;16.05;7.00;;;7.30;99.90;;;;;;4989592;28;20486;-18
2023/12/05 08:07:51;;;;;;;14.67;6.03;;;7.40;99.90;;;;;;5023451;28;20021;-17
2023/12/05 08:10:17;;;;;;;15.27;6.55;;;7.40;99.90;;;;;;5016262;28;20048;-17
2023/12/05 08:12:42;;;;;;;14.97;6.90;;;7.30;99.90;;;;;;4994133;28;20029;-17
2023/12/05 08:15:09;;;;;;;15.13;6.28;;;7.30;99.90;;;;;;5029272;28;20260;-17
2023/12/05 08:17:35;;;;;;;15.80;6.65;;;7.40;99.90;;;;;;5027771;28;20029;-18
2023/12/05 08:20:01;;;;;;;15.63;6.60;;;7.30;99.90;;;;;;5008052;28;20103;-16
2023/12/05 08:22:26;;;;;;;13.32;5.63;;;7.40;99.90;;;;;;5004653;28;20525;-18
2023/12/05 08:24:52;;;;;;;15.65;6.50;;;7.30;99.90;;;;;;4999742;28;20230;-16
2023/12/05 08:27:18;;;;;;;14.40;6.07;;;6.30;99.90;;;;;;5027689;28;20475;-17
2023/12/05 08:29:44;;;;;;;15.43;5.90;;;7.40;99.90;;;;;;5026169;28;20033;-17
2023/12/05 08:32:11;;;;;;;14.87;6.03;;;7.40;99.90;;;;;;5011683;28;20056;-17
2023/12/05 08:34:37;;;;;;;15.02;6.10;;;7.40;99.90;;;;;;5022733;28;20036;-18
2023/12/05 08:37:03;;;;;;;12.85;5.35;;;7.40;99.90;;;;;;4988179;28;20411;-18
2023/12/05 08:39:29;;;;;;;14.10;5.87;;;7.40;99.90;;;;;;5027750;28;20668;-17
2023/12/05 08:41:55;;;;;;;13.63;5.05;;;7.40;99.90;;;;;;4986636;28;20036;-17
2023/12/05 08:44:20;;;;;;;14.17;6.13;;;7.50;99.90;;;;;;5024385;28;20029;-16
2023/12/05 08:46:46;;;;;;;15.35;6.68;;;7.40;99.90;;;;;;5030760;28;20052;-17
2023/12/05 08:49:15;;;;;;;14.80;6.20;;;7.50;99.90;;;;;;5024426;28;20041;-18
2023/12/05 08:51:41;;;;;;;13.35;6.03;;;7.50;99.90;;;;;;5004549;28;20393;-17
2023/12/05 08:54:06;;;;;;;17.17;6.43;;;7.50;99.90;;;;;;4982024;28;20044;-18
2023/12/05 08:56:32;;;;;;;17.13;6.53;;;7.50;99.90;;;;;;5016680;28;20036;-15
2023/12/05 08:58:58;;;;;;;15.85;6.53;;;7.60;99.90;;;;;;5027817;28;20029;-18
2023/12/05 09:01:25;;;;;;;16.00;7.05;;;7.60;99.90;;;;;;5022290;28;20395;-17
2023/12/05 09:03:51;;;;;;;14.47;5.87;;;7.60;99.90;;;;;;5010179;28;20033;-16
2023/12/05 09:06:17;;;;;;;12.90;5.53;;;7.60;99.90;;;;;;5000231;28;20809;-16
2023/12/05 09:08:42;;;;;;;14.77;6.13;;;7.60;99.90;;;;;;5005420;28;20035;-16
2023/12/05 09:11:08;;;;;;;14.97;6.30;;;7.60;99.90;;;;;;5022469;28;20025;-18
2023/12/05 09:13:34;;;;;;;17.38;6.78;;;7.60;99.90;;;;;;5025123;28;20033;-16
2023/12/05 09:16:00;;;;;;;15.98;6.47;;;7.70;99.90;;;;;;5010360;28;20025;-17
2023/12/05 09:18:26;;;;;;;15.32;6.63;;;7.60;99.90;;;;;;5024891;28;20224;-15
2023/12/05 09:20:51;;;;;;;15.07;5.70;;;7.70;99.90;;;;;;5006900;28;20120;-16
2023/12/05 09:23:17;;;;;;;10.83;4.83;;;7.70;99.90;;;;;;4998371;28;20631;-17
2023/12/05 09:25:44;;;;;;;13.43;5.53;;;7.80;99.90;;;;;;5002140;28;20033;-17
2023/12/05 09:28:10;;;;;;;9.30;4.38;;;7.70;99.90;;;;;;5015432;28;20124;-18
2023/12/05 09:30:36;;;;;;;10.83;4.23;;;8.80;99.90;;;;;;5009881;28;20508;-17
2023/12/05 09:33:02;;;;;;;13.65;5.28;;;7.80;99.90;;;;;;5016643;28;20033;-17
2023/12/05 09:35:28;;;;;;;12.70;4.95;;;7.80;99.90;;;;;;5021375;28;20095;-17
2023/12/05 09:37:53;;;;;;;10.43;4.47;;;7.80;99.90;;;;;;4984648;28;20536;-16
2023/12/05 09:40:19;;;;;;;13.40;5.33;;;7.80;99.90;;;;;;5014591;28;20314;-16
2023/12/05 09:42:48;;;;;;;10.43;4.68;;;7.80;99.90;;;;;;5018743;28;20082;-16
2023/12/05 09:45:15;;;;;;;11.20;4.70;;;7.90;99.90;;;;;;5023918;28;20673;-18
2023/12/05 09:47:52;;;;;;;9.90;4.70;;;7.80;99.90;;;;;;5026628;28;20396;-17
2023/12/05 09:50:19;;;;;;;9.05;4.20;;;7.90;99.90;;;;;;5024584;28;20783;-16
2023/12/05 09:52:44;;;;;;;8.65;4.20;;;7.90;99.90;;;;;;4974119;28;20045;-16
2023/12/05 09:55:10;;;;;;;12.57;5.10;;;7.90;99.90;;;;;;5012993;28;20024;-18
2023/12/05 09:57:37;;;;;;;11.60;4.95;;;7.90;99.90;;;;;;4973486;28;20079;-16
2023/12/05 10:00:04;;;;;;;11.05;4.65;;;7.90;99.90;;;;;;5023404;28;20674;-18
2023/12/05 10:02:32;;;;;;;9.43;4.40;;;7.90;99.90;;;;;;5006505;28;20024;-16
2023/12/05 10:05:02;;;;;;;8.57;4.22;;;7.90;99.90;;;;;;5026876;28;20040;-18
2023/12/05 10:07:29;;;;;;;9.97;4.23;;;7.90;99.90;;;;;;4967074;28;20957;-18
2023/12/05 10:09:57;;;;;;;9.20;4.05;;;7.90;99.90;;;;;;4998250;28;20053;-18
2023/12/05 10:12:23;;;;;;;9.25;4.30;;;7.90;99.90;;;;;;5001145;28;20313;-16
2023/12/05 10:14:51;;;;;;;11.27;4.50;;;7.90;99.90;;;;;;5027452;28;20033;-16
2023/12/05 10:17:17;;;;;;;9.98;4.00;;;7.90;99.90;;;;;;5022390;28;20330;-17
2023/12/05 10:19:42;;;;;;;11.10;4.33;;;7.90;99.90;;;;;;5025726;28;20025;-16
2023/12/05 10:22:09;;;;;;;9.27;4.15;;;7.90;99.90;;;;;;5022896;28;20475;-18
2023/12/05 10:24:55;;;;;;;9.07;4.07;;;7.90;99.90;;;;;;4984477;28;20044;-16
2023/12/05 10:27:21;;;;;;;8.93;3.60;;;7.90;99.90;;;;;;4980106;28;21315;-17
2023/12/05 10:29:46;;;;;;;7.32;3.28;;;7.80;99.90;;;;;;4996275;28;20256;-16
2023/12/05 10:32:13;;;;;;;11.00;4.10;;;7.90;99.90;;;;;;5011925;28;20037;-18
2023/12/05 10:34:46;;;;;;;11.13;4.65;;;7.90;99.90;;;;;;4994864;28;21217;-17
2023/12/05 10:37:12;;;;;;;10.18;4.25;;;7.90;99.90;;;;;;5004941;28;20098;-18
2023/12/05 10:39:38;;;;;;;9.57;4.57;;;7.90;99.90;;;;;;4994980;28;20037;-16
2023/12/05 10:42:04;;;;;;;8.48;4.07;;;7.90;99.90;;;;;;5005878;28;20040;-19
2023/12/05 10:44:39;;;;;;;10.27;3.92;;;7.90;99.90;;;;;;5008790;28;20244;-20
2023/12/05 10:47:06;;;;;;;8.38;3.97;;;7.80;99.90;;;;;;5010313;28;20121;-20
2023/12/05 10:49:34;;;;;;;10.07;3.97;;;7.90;99.90;;;;;;4984745;28;20411;-19
2023/12/05 10:52:03;;;;;;;10.85;4.75;;;7.90;99.90;;;;;;5001906;28;20454;-19
2023/12/05 10:54:28;;;;;;;12.35;5.20;;;7.90;99.90;;;;;;4993824;28;20051;-20
2023/12/05 10:56:58;;;;;;;8.15;4.07;;;7.90;99.90;;;;;;5022301;28;20033;-20
2023/12/05 10:59:26;;;;;;;12.13;5.03;;;7.90;99.90;;;;;;5006031;28;20363;-19
2023/12/05 11:01:58;;;;;;;14.50;5.60;;;6.70;99.90;;;;;;5022291;28;20032;-19
2023/12/05 11:04:27;;;;;;;10.38;4.63;;;7.90;99.90;;;;;;5023204;28;20124;-20
2023/12/05 11:06:53;;;;;;;11.65;4.85;;;7.90;99.90;;;;;;4983648;28;20029;-20
2023/12/05 11:09:20;;;;;;;10.40;4.60;;;7.90;99.90;;;;;;4956365;28;20090;-19
2023/12/05 11:11:50;;;;;;;10.75;4.40;;;8.00;99.90;;;;;;5007449;28;20544;-19
2023/12/05 11:14:16;;;;;;;10.73;4.80;;;7.90;99.90;;;;;;5012443;28;20544;-19
2023/12/05 11:16:53;;;;;;;13.65;4.95;;;7.90;99.90;;;;;;5022480;28;20033;-20
2023/12/05 11:19:39;;;;;;;13.13;5.85;;;7.90;99.90;;;;;;5023779;28;20109;-19
2023/12/05 11:22:32;;;;;;;13.55;6.00;;;7.90;99.90;;;;;;5024893;28;20504;-19
2023/12/05 11:25:16;;;;;;;11.23;5.30;;;7.90;99.90;;;;;;5027214;28;20374;-19
2023/12/05 11:28:19;;;;;;;14.07;5.43;;;7.90;99.90;;;;;;5021023;28;20033;-20
2023/12/05 11:30:50;;;;;;;12.20;5.00;;;7.90;99.90;;;;;;4998009;28;20394;-19
2023/12/05 11:33:39;;;;;;;15.95;6.15;;;7.90;99.90;;;;;;5026012;28;20044;-19
2023/12/05 11:36:36;;;;;;;15.68;6.03;;;7.80;99.90;;;;;;5026057;28;20397;-19
2023/12/05 11:39:03;;;;;;;16.05;5.97;;;7.90;99.90;;;;;;5018090;28;20029;-20
2023/12/05 11:41:29;;;;;;;14.17;6.07;;;7.80;99.90;;;;;;4997717;28;20771;-20
2023/12/05 11:44:17;;;;;;;14.90;6.22;;;7.80;99.90;;;;;;5027794;28;20082;-20
2023/12/05 11:46:44;;;;;;;14.25;5.47;;;7.80;99.90;;;;;;4994609;28;20445;-19
2023/12/05 11:49:10;;;;;;;13.75;5.32;;;7.80;99.90;;;;;;4990137;28;20437;-20
2023/12/05 11:51:39;;;;;;;16.60;6.40;;;7.80;99.90;;;;;;5022572;28;20037;-16
2023/12/05 11:54:07;;;;;;;16.70;6.25;;;7.70;99.90;;;;;;5010872;28;20275;-17
2023/12/05 11:56:33;;;;;;;15.93;6.22;;;7.80;99.90;;;;;;5001710;28;20087;-16
2023/12/05 11:59:14;;;;;;;17.00;6.47;;;7.80;99.90;;;;;;5006604;28;20714;-16
2023/12/05 12:01:44;;;;;;;12.82;5.38;;;7.80;99.90;;;;;;5017608;28;20029;-18
2023/12/05 12:04:20;;;;;;;18.02;6.30;;;7.80;99.90;;;;;;5027339;28;20294;-16
2023/12/05 12:06:50;;;;;;;16.88;6.45;;;7.80;99.90;;;;;;5031042;28;20060;-18
2023/12/05 12:09:16;;;;;;;23.13;7.50;;;7.80;99.90;;;;;;5012460;28;20244;-17
2023/12/05 12:11:42;;;;;;;23.98;8.15;;;7.80;99.90;;;;;;5006720;28;20025;-18
2023/12/05 12:14:16;;;;;;;20.15;8.05;;;7.80;99.90;;;;;;4998254;28;20041;-17
2023/12/05 12:16:43;;;;;;;16.83;6.50;;;7.80;99.90;;;;;;4967000;28;20521;-16
2023/12/05 12:19:11;;;;;;;18.60;7.60;;;7.80;99.90;;;;;;4993954;28;20491;-18
2023/12/05 12:21:38;;;;;;;19.70;7.60;;;7.80;99.90;;;;;;5026537;28;20258;-16
2023/12/05 12:24:04;;;;;;;19.17;7.50;;;7.80;99.90;;;;;;4984857;28;20494;-17
2023/12/05 12:26:33;;;;;;;19.80;7.40;;;7.80;99.90;;;;;;5000646;28;20071;-17
2023/12/05 12:29:09;;;;;;;19.58;7.80;;;7.80;99.90;;;;;;5006204;28;20049;-17
2023/12/05 12:31:35;;;;;;;20.73;8.05;;;7.80;99.90;;;;;;5015398;28;20850;-17
2023/12/05 12:34:07;;;;;;;22.63;8.30;;;7.80;99.90;;;;;;4997793;28;20025;-18
2023/12/05 12:36:34;;;;;;;20.85;8.15;;;7.80;99.90;;;;;;5025477;28;20312;-17
2023/12/05 12:39:01;;;;;;;18.42;7.47;;;7.80;99.90;;;;;;5008805;28;20033;-17
2023/12/05 12:41:27;;;;;;;21.75;7.90;;;7.80;99.90;;;;;;4992498;28;20025;-17
2023/12/05 12:43:53;;;;;;;21.50;8.73;;;7.80;99.90;;;;;;5000453;28;20087;-16
2023/12/05 12:46:19;;;;;;;21.50;8.30;;;7.80;99.90;;;;;;5020795;28;20033;-17
2023/12/05 12:48:45;;;;;;;21.63;8.57;;;7.80;99.90;;;;;;4997661;28;20037;-16
2023/12/05 12:51:12;;;;;;;23.58;9.05;;;7.80;99.90;;;;;;5008392;28;21047;-18